Time;durP1;ratioP1;P1;durP2;ratioP2;P2;SDS_P1;SDS_P2;PMS_P1;PMS_P2;Temp;Humidity;BMP_temperature;BMP_pressure;BME280_temperature;BME280_humidity;BME280_pressure;Samples;Min_cycle;Max_cycle;Signal;HPM_P1;HPM_P2
2021/05/18 00:02:22;;;;;;;4.40;0.50;;;10.90;99.90;;;;;;5054318;28;20178;-69
2021/05/18 00:04:48;;;;;;;4.60;0.67;;;10.90;99.90;;;;;;5034700;28;20204;-70
2021/05/18 00:07:21;;;;;;;4.50;0.60;;;10.90;99.90;;;;;;5034218;28;20636;-68
2021/05/18 00:12:35;;;;;;;4.43;0.50;;;10.90;99.90;;;;;;5027983;28;20251;-68
2021/05/18 00:15:03;;;;;;;5.00;0.60;;;11.00;99.90;;;;;;5053735;28;20650;-69
2021/05/18 00:17:29;;;;;;;4.45;0.50;;;11.00;99.90;;;;;;5048562;28;20166;-68
2021/05/18 00:19:54;;;;;;;4.40;0.50;;;11.00;99.90;;;;;;5034224;28;20174;-67
2021/05/18 00:22:20;;;;;;;4.40;0.47;;;11.00;99.90;;;;;;5036874;28;20177;-68
2021/05/18 00:24:47;;;;;;;4.40;0.40;;;11.00;99.90;;;;;;5046281;28;20494;-69
2021/05/18 00:27:13;;;;;;;4.47;0.50;;;11.00;99.90;;;;;;5035218;28;20323;-70
2021/05/18 00:29:38;;;;;;;4.90;0.65;;;11.00;99.90;;;;;;5035945;28;20296;-70
2021/05/18 00:32:04;;;;;;;4.60;0.60;;;11.00;99.90;;;;;;5053394;28;20253;-69
2021/05/18 00:34:30;;;;;;;4.70;0.68;;;10.90;99.90;;;;;;5033389;28;20556;-69
2021/05/18 00:36:56;;;;;;;4.30;0.40;;;10.80;99.90;;;;;;5033777;28;20170;-68
2021/05/18 00:39:21;;;;;;;4.40;0.40;;;10.70;99.90;;;;;;5041694;28;20288;-68
2021/05/18 00:41:48;;;;;;;4.90;0.60;;;10.60;99.90;;;;;;5014217;28;20272;-68
2021/05/18 00:44:14;;;;;;;4.40;0.47;;;10.60;99.90;;;;;;5047641;28;20180;-68
2021/05/18 00:46:41;;;;;;;4.30;0.40;;;10.60;99.90;;;;;;5053736;28;20189;-67
2021/05/18 00:49:07;;;;;;;4.32;0.50;;;10.50;99.90;;;;;;5037829;28;20364;-68
2021/05/18 00:51:33;;;;;;;4.87;0.60;;;10.40;99.90;;;;;;5016029;28;20272;-68
2021/05/18 00:54:00;;;;;;;6.10;0.80;;;10.40;99.90;;;;;;5041902;28;20428;-69
2021/05/18 00:59:04;;;;;;;4.25;0.40;;;10.30;99.90;;;;;;5042002;28;20177;-68
2021/05/18 01:01:31;;;;;;;4.25;0.50;;;10.30;99.90;;;;;;5053497;28;20691;-68
2021/05/18 01:03:59;;;;;;;4.40;0.60;;;10.20;99.90;;;;;;5040088;28;20228;-68
2021/05/18 01:09:08;;;;;;;4.38;0.50;;;10.10;99.90;;;;;;5038775;28;20205;-68
2021/05/18 01:11:34;;;;;;;4.43;0.50;;;10.10;99.90;;;;;;5031809;28;20561;-68
2021/05/18 01:14:04;;;;;;;4.30;0.57;;;10.10;99.90;;;;;;5026680;28;20204;-68
2021/05/18 01:16:33;;;;;;;4.25;0.50;;;10.10;99.90;;;;;;5053503;28;20404;-68
2021/05/18 01:18:59;;;;;;;4.18;0.45;;;10.10;99.90;;;;;;5041739;28;20227;-69
2021/05/18 01:21:25;;;;;;;4.25;0.50;;;10.00;99.90;;;;;;5033272;28;20651;-69
2021/05/18 01:23:52;;;;;;;4.20;0.40;;;10.00;99.90;;;;;;5038343;28;20232;-67
2021/05/18 01:26:18;;;;;;;4.20;0.40;;;10.00;99.90;;;;;;5015274;28;20688;-68
2021/05/18 01:28:44;;;;;;;4.30;0.50;;;10.00;99.90;;;;;;5045030;28;20205;-67
2021/05/18 01:31:13;;;;;;;4.50;0.70;;;10.00;99.90;;;;;;5043354;28;20536;-65
2021/05/18 01:33:38;;;;;;;4.43;0.60;;;9.90;99.90;;;;;;5033703;28;20170;-68
2021/05/18 01:36:08;;;;;;;4.10;0.63;;;10.00;99.90;;;;;;5037521;28;20194;-68
2021/05/18 01:38:45;;;;;;;3.75;0.45;;;10.00;99.90;;;;;;5028873;28;20193;-69
2021/05/18 01:43:57;;;;;;;3.88;0.90;;;10.00;99.90;;;;;;5046943;28;20260;-68
2021/05/18 01:46:26;;;;;;;3.90;0.57;;;10.10;99.90;;;;;;5056905;28;20169;-69
2021/05/18 01:48:58;;;;;;;4.03;0.50;;;10.10;99.90;;;;;;5045139;28;20216;-69
2021/05/18 01:51:28;;;;;;;4.35;0.75;;;10.20;99.90;;;;;;5036848;28;20186;-69
2021/05/18 01:53:57;;;;;;;3.60;0.50;;;10.20;99.90;;;;;;5047229;28;20184;-69
2021/05/18 01:59:10;;;;;;;3.72;0.50;;;10.20;99.90;;;;;;5044392;28;20550;-69
2021/05/18 02:01:36;;;;;;;3.90;0.60;;;10.30;99.90;;;;;;5046091;28;20188;-69
2021/05/18 02:04:04;;;;;;;3.90;0.50;;;10.30;99.90;;;;;;5045557;28;20718;-68
2021/05/18 02:06:31;;;;;;;4.60;0.90;;;10.20;99.90;;;;;;5044644;28;20562;-69
2021/05/18 02:08:57;;;;;;;3.90;0.50;;;10.20;99.90;;;;;;5056812;28;20215;-68
2021/05/18 02:11:23;;;;;;;3.95;0.45;;;10.30;99.90;;;;;;5045151;28;20218;-68
2021/05/18 02:13:51;;;;;;;4.20;0.50;;;10.30;99.90;;;;;;5036083;28;20162;-68
2021/05/18 02:16:22;;;;;;;4.57;0.60;;;10.20;99.90;;;;;;5045599;28;20185;-68
2021/05/18 02:26:29;;;;;;;3.90;0.50;;;10.30;99.90;;;;;;5041218;28;20200;-68
2021/05/18 02:28:55;;;;;;;4.10;0.50;;;10.20;99.90;;;;;;5036329;28;20198;-67
2021/05/18 02:31:22;;;;;;;3.87;0.40;;;10.20;99.90;;;;;;5044307;28;20165;-69
2021/05/18 02:33:50;;;;;;;3.97;0.50;;;10.20;99.90;;;;;;5055692;28;20166;-68
2021/05/18 02:36:17;;;;;;;4.10;0.52;;;10.10;99.90;;;;;;5048596;28;20194;-68
2021/05/18 02:38:43;;;;;;;4.32;0.60;;;10.10;99.90;;;;;;5036048;28;20228;-68
2021/05/18 02:41:09;;;;;;;3.83;0.40;;;10.10;99.90;;;;;;5037339;28;20177;-68
2021/05/18 02:43:59;;;;;;;4.10;0.60;;;10.10;99.90;;;;;;5035624;28;20612;-68
2021/05/18 02:51:33;;;;;;;3.95;0.55;;;10.10;99.90;;;;;;5047400;28;20527;-68
2021/05/18 02:53:59;;;;;;;3.90;0.53;;;10.10;99.90;;;;;;5035219;28;20249;-68
2021/05/18 02:56:44;;;;;;;4.00;0.60;;;10.10;99.90;;;;;;5037076;28;20226;-69
2021/05/18 02:59:14;;;;;;;3.60;0.40;;;10.10;99.90;;;;;;5035585;28;20170;-69
2021/05/18 03:01:42;;;;;;;3.80;0.70;;;10.10;99.90;;;;;;5025250;28;20184;-68
2021/05/18 03:04:09;;;;;;;3.70;0.47;;;10.20;99.90;;;;;;5054905;28;20204;-69
2021/05/18 03:06:35;;;;;;;3.80;0.52;;;10.20;99.90;;;;;;5026456;28;20263;-69
2021/05/18 03:09:07;;;;;;;3.90;0.60;;;10.20;99.90;;;;;;5055445;28;20267;-69
2021/05/18 03:11:33;;;;;;;3.80;0.40;;;10.20;99.90;;;;;;5049910;28;20177;-69
2021/05/18 03:13:59;;;;;;;4.00;0.70;;;10.20;99.90;;;;;;5034913;28;20162;-69
2021/05/18 03:16:24;;;;;;;3.90;0.60;;;10.20;99.90;;;;;;5046680;28;20413;-69
2021/05/18 03:18:50;;;;;;;4.53;0.60;;;10.10;99.90;;;;;;5035366;28;20170;-70
2021/05/18 03:21:16;;;;;;;4.00;0.40;;;10.10;99.90;;;;;;5053774;28;20187;-69
2021/05/18 03:23:41;;;;;;;3.80;0.50;;;10.10;99.90;;;;;;5036871;28;20541;-69
2021/05/18 03:26:07;;;;;;;4.30;0.47;;;10.10;99.90;;;;;;5037797;28;20568;-68
2021/05/18 03:28:33;;;;;;;4.10;0.60;;;10.10;99.90;;;;;;5035238;28;20293;-68
2021/05/18 03:36:08;;;;;;;4.10;0.80;;;10.20;99.90;;;;;;5050212;28;20259;-69
2021/05/18 03:41:20;;;;;;;3.80;0.40;;;10.20;99.90;;;;;;5040103;28;20182;-69
2021/05/18 03:44:06;;;;;;;4.00;0.60;;;10.20;99.90;;;;;;5033492;28;20193;-70
2021/05/18 03:54:41;;;;;;;4.38;0.90;;;10.30;99.90;;;;;;5049544;28;20212;-68
2021/05/18 04:13:18;;;;;;;4.15;0.65;;;10.30;99.90;;;;;;5033940;28;20636;-69
2021/05/18 04:18:33;;;;;;;4.22;0.50;;;10.30;99.90;;;;;;5034198;28;20176;-68
2021/05/18 04:21:06;;;;;;;4.13;0.70;;;10.40;99.90;;;;;;5050995;28;20170;-69
2021/05/18 04:23:47;;;;;;;3.90;0.47;;;10.50;99.90;;;;;;5052983;28;20559;-68
2021/05/18 04:38:44;;;;;;;4.10;0.60;;;10.70;99.90;;;;;;4992537;28;20213;-68
2021/05/18 04:43:31;;;;;;;4.30;0.60;;;10.90;99.90;;;;;;5042285;28;20212;-69
2021/05/18 04:51:32;;;;;;;4.22;0.57;;;11.00;99.90;;;;;;5036602;28;20663;-68
2021/05/18 04:59:26;;;;;;;4.70;0.75;;;11.10;99.90;;;;;;5048986;28;20547;-68
2021/05/18 05:07:00;;;;;;;5.40;0.65;;;11.20;99.90;;;;;;5052823;28;20215;-68
2021/05/18 05:09:29;;;;;;;4.43;0.60;;;11.30;99.90;;;;;;5022597;28;20197;-68
2021/05/18 05:14:39;;;;;;;4.93;0.70;;;11.30;99.90;;;;;;5046112;28;20212;-68
2021/05/18 05:17:05;;;;;;;5.83;1.00;;;11.30;99.90;;;;;;5032995;28;20178;-72
2021/05/18 05:19:31;;;;;;;4.43;0.52;;;11.30;99.90;;;;;;5037710;28;20177;-67
2021/05/18 05:21:57;;;;;;;4.35;0.40;;;11.30;99.90;;;;;;5053314;28;20180;-69
2021/05/18 05:24:23;;;;;;;4.40;0.50;;;11.40;99.90;;;;;;5049519;28;20552;-68
2021/05/18 05:26:53;;;;;;;4.40;0.50;;;11.40;99.90;;;;;;5032938;28;20194;-69
2021/05/18 05:29:20;;;;;;;4.97;0.75;;;11.50;99.90;;;;;;5033181;28;20449;-70
2021/05/18 05:31:47;;;;;;;5.32;0.60;;;11.60;99.90;;;;;;5039555;28;20264;-69
2021/05/18 05:34:13;;;;;;;4.60;0.50;;;11.80;99.90;;;;;;5051555;28;20169;-68
2021/05/18 05:36:39;;;;;;;4.60;0.70;;;11.90;99.90;;;;;;5033212;28;20166;-69
2021/05/18 05:39:13;;;;;;;5.10;0.68;;;11.90;99.90;;;;;;5015288;28;20244;-68
2021/05/18 05:41:38;;;;;;;4.80;0.70;;;12.00;99.90;;;;;;5052411;28;20189;-68
2021/05/18 05:44:05;;;;;;;4.93;0.80;;;11.90;99.90;;;;;;5041276;28;20474;-67
2021/05/18 05:46:31;;;;;;;4.80;0.65;;;11.90;99.90;;;;;;5049721;28;20228;-69
2021/05/18 05:48:58;;;;;;;5.93;1.02;;;11.90;99.90;;;;;;5052752;28;20197;-70
2021/05/18 05:51:25;;;;;;;8.40;1.50;;;11.80;99.90;;;;;;5053049;28;20176;-69
2021/05/18 05:53:53;;;;;;;5.80;1.08;;;11.80;99.90;;;;;;5052595;28;20540;-70
2021/05/18 05:56:18;;;;;;;5.30;1.05;;;11.70;99.90;;;;;;5016513;28;20190;-70
2021/05/18 05:58:45;;;;;;;5.00;0.50;;;11.70;99.90;;;;;;5032589;28;20174;-70
2021/05/18 06:01:12;;;;;;;4.70;0.63;;;11.60;99.90;;;;;;5032789;28;20574;-70
2021/05/18 06:03:38;;;;;;;4.70;0.60;;;11.50;99.90;;;;;;5032443;28;20193;-71
2021/05/18 06:06:04;;;;;;;4.70;0.60;;;11.50;99.90;;;;;;5032730;28;20683;-69
2021/05/18 06:08:30;;;;;;;4.60;0.60;;;11.50;99.90;;;;;;5032822;28;20463;-70
2021/05/18 06:11:05;;;;;;;9.45;1.65;;;11.50;99.90;;;;;;5032725;28;20648;-71
2021/05/18 06:13:46;;;;;;;4.70;0.80;;;11.50;99.90;;;;;;5032454;28;20189;-71
2021/05/18 06:48:10;;;;;;;5.35;0.90;;;11.50;99.90;;;;;;5036439;28;20185;-69
2021/05/18 06:50:36;;;;;;;4.80;1.30;;;11.60;99.90;;;;;;5035366;28;20173;-69
2021/05/18 06:53:01;;;;;;;4.80;1.20;;;11.60;99.90;;;;;;5035588;28;20228;-70
2021/05/18 06:55:31;;;;;;;4.80;0.93;;;11.70;99.90;;;;;;5035503;28;20185;-71
2021/05/18 06:58:07;;;;;;;4.80;1.20;;;11.90;99.90;;;;;;5035613;28;20169;-70
2021/05/18 07:00:38;;;;;;;4.32;0.60;;;12.20;99.90;;;;;;5035529;28;20166;-71
2021/05/18 07:03:08;;;;;;;4.53;0.60;;;12.60;99.90;;;;;;5035347;28;20198;-69
2021/05/18 07:11:01;;;;;;;5.30;0.90;;;14.10;99.90;;;;;;5047685;28;20426;-73
2021/05/18 07:13:26;;;;;;;5.47;1.13;;;14.30;99.90;;;;;;5055145;28;21278;-72
2021/05/18 07:15:52;;;;;;;5.40;0.80;;;14.30;99.90;;;;;;5055269;28;20192;-73
2021/05/18 07:18:18;;;;;;;4.90;0.70;;;14.40;99.90;;;;;;5055092;28;20195;-70
2021/05/18 07:20:43;;;;;;;4.90;0.70;;;14.40;99.90;;;;;;5046535;28;20595;-69
2021/05/18 07:23:11;;;;;;;5.57;1.17;;;14.30;99.90;;;;;;5034721;28;20168;-68
2021/05/18 07:25:38;;;;;;;5.40;0.70;;;14.20;99.90;;;;;;5034794;28;20203;-68
2021/05/18 07:28:07;;;;;;;5.00;0.70;;;14.00;99.90;;;;;;5034951;28;20447;-68
2021/05/18 07:30:34;;;;;;;5.70;0.87;;;13.70;99.90;;;;;;5035042;28;20430;-69
2021/05/18 07:33:00;;;;;;;5.20;0.90;;;13.50;99.90;;;;;;5033829;28;20406;-69
2021/05/18 07:35:25;;;;;;;5.00;0.77;;;13.40;99.90;;;;;;5041269;28;20518;-68
2021/05/18 07:37:51;;;;;;;5.57;0.80;;;13.50;99.90;;;;;;5054058;28;20223;-68
2021/05/18 07:40:17;;;;;;;5.00;0.60;;;13.70;99.90;;;;;;5054625;28;20173;-70
2021/05/18 07:42:42;;;;;;;5.40;0.70;;;14.00;99.90;;;;;;5054673;28;20227;-69
2021/05/18 07:45:09;;;;;;;4.93;0.67;;;14.20;99.90;;;;;;5054205;28;20594;-71
2021/05/18 07:47:37;;;;;;;8.80;0.90;;;14.60;99.90;;;;;;5054879;28;20170;-69
2021/05/18 07:50:10;;;;;;;5.03;0.80;;;14.80;99.90;;;;;;5047327;28;20463;-69
2021/05/18 08:06:16;;;;;;;4.57;0.67;;;14.30;99.90;;;;;;5054393;28;20851;-69
2021/05/18 08:08:42;;;;;;;4.70;0.80;;;14.20;99.90;;;;;;5053930;28;20486;-70
2021/05/18 08:11:08;;;;;;;6.00;1.23;;;14.00;99.90;;;;;;5038107;28;20181;-69
2021/05/18 08:13:34;;;;;;;6.93;1.17;;;13.90;99.90;;;;;;5033792;28;20462;-71
2021/05/18 08:53:03;;;;;;;6.10;1.13;;;14.00;99.90;;;;;;5040136;28;20466;-72
2021/05/18 10:36:29;;;;;;;3.90;0.70;;;20.70;94.80;;;;;;5035809;28;20415;-70
2021/05/18 10:39:25;;;;;;;3.30;0.50;;;20.60;94.10;;;;;;5035986;28;20178;-72
2021/05/18 10:41:52;;;;;;;3.30;0.40;;;19.80;93.60;;;;;;5035684;28;20436;-71
2021/05/18 10:44:18;;;;;;;3.50;0.53;;;19.40;94.80;;;;;;5035419;28;20468;-71
2021/05/18 10:46:56;;;;;;;3.40;0.50;;;19.70;95.80;;;;;;5041990;28;20922;-70
2021/05/18 10:49:36;;;;;;;4.60;0.70;;;20.30;95.10;;;;;;5055709;28;20484;-69
2021/05/18 10:52:09;;;;;;;3.30;0.43;;;21.10;94.60;;;;;;5055604;28;20448;-71
2021/05/18 10:54:43;;;;;;;3.30;0.50;;;22.00;94.80;;;;;;5054935;28;20436;-72
2021/05/18 10:57:17;;;;;;;3.30;0.40;;;22.70;90.90;;;;;;5054599;28;20465;-71
2021/05/18 10:59:55;;;;;;;3.33;0.60;;;23.00;90.10;;;;;;5037745;28;20434;-69
2021/05/18 11:02:38;;;;;;;3.40;0.60;;;23.50;87.10;;;;;;5055643;28;20432;-73
2021/05/18 11:05:05;;;;;;;3.63;0.83;;;23.50;85.60;;;;;;5055169;28;20440;-73
2021/05/18 11:07:37;;;;;;;4.30;1.30;;;23.20;83.70;;;;;;5054755;28;20410;-70
2021/05/18 11:10:14;;;;;;;3.10;0.50;;;22.60;83.30;;;;;;5054942;28;20495;-70
2021/05/18 11:12:44;;;;;;;3.60;0.50;;;22.00;83.80;;;;;;5055390;28;20478;-69
2021/05/18 11:15:21;;;;;;;4.73;1.00;;;21.30;84.90;;;;;;5048880;28;20451;-71
2021/05/18 11:17:56;;;;;;;3.17;0.40;;;20.60;86.40;;;;;;5034074;28;20503;-70
2021/05/18 11:25:50;;;;;;;4.10;1.13;;;18.60;90.30;;;;;;5044419;28;20477;-68
2021/05/18 11:28:22;;;;;;;3.80;0.70;;;18.00;92.50;;;;;;5055045;28;20408;-69
2021/05/18 11:30:56;;;;;;;3.30;0.50;;;17.60;92.70;;;;;;5054840;28;20441;-71
2021/05/18 11:33:47;;;;;;;3.40;0.50;;;17.60;91.90;;;;;;5054563;28;20408;-70
2021/05/18 11:36:24;;;;;;;3.80;0.67;;;17.50;91.00;;;;;;5053732;28;20534;-72
2021/05/18 11:38:55;;;;;;;5.63;0.90;;;17.50;92.60;;;;;;5054818;28;20404;-72
2021/05/18 11:41:23;;;;;;;3.40;0.60;;;17.70;91.80;;;;;;5037687;28;20431;-71
2021/05/18 11:43:50;;;;;;;4.40;0.70;;;17.70;92.30;;;;;;5034464;28;20421;-71
2021/05/18 11:46:16;;;;;;;4.10;0.97;;;17.60;93.40;;;;;;5034649;28;20431;-73
2021/05/18 11:48:53;;;;;;;3.73;1.20;;;17.30;93.70;;;;;;5034579;28;20448;-71
2021/05/18 11:51:19;;;;;;;3.87;0.80;;;17.40;93.50;;;;;;5034759;28;20197;-71
2021/05/18 11:53:48;;;;;;;3.20;0.50;;;17.70;92.80;;;;;;5034299;28;20441;-72
2021/05/18 11:56:27;;;;;;;3.80;0.80;;;17.90;92.10;;;;;;5048698;28;20236;-72
2021/05/18 11:59:12;;;;;;;3.50;0.67;;;18.00;92.40;;;;;;5036385;28;20458;-71
2021/05/18 12:01:44;;;;;;;3.40;0.70;;;18.00;88.30;;;;;;5053450;28;20404;-70
2021/05/18 12:04:14;;;;;;;3.30;0.50;;;17.70;87.10;;;;;;5053634;28;20412;-71
2021/05/18 12:06:58;;;;;;;4.10;1.10;;;17.30;90.60;;;;;;5054022;28;20484;-72
2021/05/18 12:09:24;;;;;;;3.53;0.50;;;16.90;91.30;;;;;;5053716;28;20466;-72
2021/05/18 12:12:01;;;;;;;4.77;0.60;;;16.50;91.50;;;;;;5054181;28;20409;-71
2021/05/18 12:14:28;;;;;;;3.33;0.60;;;16.20;91.70;;;;;;5053674;28;20432;-72
2021/05/18 12:16:55;;;;;;;3.40;0.60;;;15.90;92.30;;;;;;5054143;28;20401;-72
2021/05/18 12:19:22;;;;;;;3.30;0.40;;;15.90;93.30;;;;;;5053078;28;20931;-72
2021/05/18 12:21:50;;;;;;;3.30;0.50;;;16.00;93.50;;;;;;5053945;28;20750;-72
2021/05/18 12:24:17;;;;;;;3.80;0.60;;;16.20;92.80;;;;;;5048035;28;20446;-71
2021/05/18 12:26:59;;;;;;;3.20;0.40;;;16.50;92.60;;;;;;5033746;28;20871;-72
2021/05/18 12:29:49;;;;;;;3.60;0.80;;;16.80;93.20;;;;;;5033888;28;20448;-71
2021/05/18 12:32:26;;;;;;;3.77;0.70;;;17.10;92.50;;;;;;5033518;28;20416;-72
2021/05/18 12:34:56;;;;;;;3.60;1.00;;;17.10;92.30;;;;;;5033261;28;20427;-71
2021/05/18 12:37:37;;;;;;;4.07;0.97;;;17.10;92.60;;;;;;5033739;28;20431;-71
2021/05/18 12:40:12;;;;;;;3.30;0.60;;;17.20;92.90;;;;;;5033937;28;20755;-70
2021/05/18 12:42:39;;;;;;;3.80;0.40;;;17.20;90.80;;;;;;5034006;28;20736;-70
2021/05/18 12:45:15;;;;;;;3.57;0.90;;;17.30;91.60;;;;;;5033224;28;20519;-73
2021/05/18 12:47:42;;;;;;;3.47;0.40;;;17.30;90.90;;;;;;5040828;28;20461;-72
2021/05/18 12:50:13;;;;;;;3.60;0.50;;;17.30;90.00;;;;;;5053511;28;20453;-71
2021/05/18 12:52:50;;;;;;;6.33;0.57;;;17.40;90.00;;;;;;5053267;28;20433;-72
2021/05/18 12:55:23;;;;;;;3.80;0.87;;;17.50;91.50;;;;;;5052605;28;20429;-71
2021/05/18 12:57:54;;;;;;;3.77;0.97;;;17.40;91.20;;;;;;5053589;28;20406;-72
2021/05/18 13:00:30;;;;;;;4.77;0.60;;;17.60;92.90;;;;;;5045328;28;20722;-71
2021/05/18 13:03:11;;;;;;;3.40;0.50;;;17.80;90.50;;;;;;5033324;28;20511;-71
2021/05/18 13:05:40;;;;;;;3.33;0.60;;;17.90;90.20;;;;;;5015617;28;20444;-71
2021/05/18 13:08:09;;;;;;;4.03;0.77;;;17.80;91.00;;;;;;5033345;28;20448;-70
2021/05/18 13:11:06;;;;;;;3.40;0.70;;;17.90;90.80;;;;;;5033259;28;20403;-71
2021/05/18 13:13:38;;;;;;;3.20;0.40;;;17.90;91.00;;;;;;5033227;28;20399;-70
2021/05/18 13:16:14;;;;;;;5.40;1.90;;;18.00;91.40;;;;;;5033464;28;20452;-71
2021/05/18 13:18:41;;;;;;;3.30;0.70;;;18.00;91.30;;;;;;5015899;28;20763;-70
2021/05/18 13:21:17;;;;;;;3.40;0.57;;;18.00;91.30;;;;;;5038864;28;20508;-71
2021/05/18 13:26:29;;;;;;;3.20;0.47;;;17.80;90.50;;;;;;5021749;28;20434;-71
2021/05/18 13:29:08;;;;;;;3.23;0.43;;;17.80;90.80;;;;;;5053137;28;20875;-72
2021/05/18 13:31:36;;;;;;;5.37;1.20;;;17.60;91.10;;;;;;5057240;28;20411;-70
2021/05/18 13:34:02;;;;;;;3.43;0.53;;;17.60;92.90;;;;;;5038818;28;20427;-71
2021/05/18 13:36:33;;;;;;;3.17;0.40;;;17.60;92.00;;;;;;5056789;28;20436;-71
2021/05/18 13:39:01;;;;;;;4.70;0.43;;;17.60;89.50;;;;;;5057066;28;20415;-71
2021/05/18 13:41:27;;;;;;;3.50;0.60;;;17.40;88.60;;;;;;5056994;28;20413;-71
2021/05/18 13:43:53;;;;;;;3.97;0.87;;;17.20;91.00;;;;;;5038759;28;20796;-70
2021/05/18 13:46:19;;;;;;;3.13;0.47;;;17.30;92.00;;;;;;5042700;28;20453;-70
2021/05/18 13:48:44;;;;;;;3.20;0.50;;;17.50;90.70;;;;;;5036985;28;20341;-69
2021/05/18 13:51:14;;;;;;;3.80;0.97;;;17.70;90.50;;;;;;5036692;28;20171;-71
2021/05/18 13:53:40;;;;;;;3.50;0.60;;;17.70;90.90;;;;;;5036452;28;20163;-71
2021/05/18 13:56:06;;;;;;;3.73;1.40;;;17.70;91.20;;;;;;5036549;28;20459;-71
2021/05/18 13:58:33;;;;;;;3.73;0.80;;;17.60;91.30;;;;;;5019072;28;20484;-69
2021/05/18 14:00:59;;;;;;;3.90;1.00;;;17.50;92.50;;;;;;5036896;28;20461;-71
2021/05/18 14:03:24;;;;;;;3.70;0.90;;;17.40;91.80;;;;;;5036465;28;20414;-71
2021/05/18 14:05:50;;;;;;;3.50;0.60;;;17.40;91.40;;;;;;5036587;28;20850;-71
2021/05/18 14:11:17;;;;;;;3.30;0.60;;;17.30;85.60;;;;;;5056696;28;20906;-73
2021/05/18 14:13:47;;;;;;;3.30;0.50;;;17.20;85.00;;;;;;5056180;28;20526;-71
2021/05/18 14:16:17;;;;;;;3.30;0.40;;;17.10;87.00;;;;;;5056999;28;20424;-72
2021/05/18 14:18:43;;;;;;;7.17;0.50;;;16.90;88.30;;;;;;5038549;28;20431;-73
2021/05/18 14:21:08;;;;;;;5.50;2.00;;;16.40;91.30;;;;;;5056590;28;20416;-72
2021/05/18 14:26:13;;;;;;;3.30;0.40;;;15.00;97.00;;;;;;5036066;28;20673;-72
2021/05/18 14:28:39;;;;;;;3.57;0.50;;;14.10;98.10;;;;;;5036345;28;20549;-72
2021/05/18 14:31:07;;;;;;;3.60;0.63;;;13.30;99.90;;;;;;5036144;28;20470;-72
2021/05/18 14:33:34;;;;;;;7.25;2.72;;;12.80;99.90;;;;;;5016133;28;20506;-71
2021/05/18 14:36:00;;;;;;;3.70;0.83;;;12.50;99.90;;;;;;5016212;28;20704;-73
2021/05/18 14:38:27;;;;;;;5.43;0.63;;;12.30;99.90;;;;;;5016481;28;20489;-72
2021/05/18 14:46:32;;;;;;;5.00;0.70;;;12.70;99.90;;;;;;4955179;29;20461;-72
2021/05/18 14:57:04;;;;;;;4.93;1.00;;;14.00;99.90;;;;;;4936519;29;20420;-71
2021/05/18 14:59:30;;;;;;;3.93;0.90;;;14.20;99.90;;;;;;4936395;29;20472;-72
2021/05/18 15:01:56;;;;;;;3.80;0.90;;;14.20;99.90;;;;;;4936230;29;20896;-72
2021/05/18 15:04:21;;;;;;;4.30;1.10;;;14.30;99.90;;;;;;4919864;29;20208;-70
2021/05/18 15:06:47;;;;;;;4.70;0.97;;;14.40;99.90;;;;;;4936643;29;20193;-71
2021/05/18 15:09:13;;;;;;;4.40;0.90;;;14.50;99.90;;;;;;4936273;29;20575;-72
2021/05/18 15:11:38;;;;;;;6.67;2.43;;;14.60;99.90;;;;;;4954946;29;20206;-72
2021/05/18 15:14:05;;;;;;;4.20;0.87;;;14.60;99.90;;;;;;4955357;29;20191;-73
2021/05/18 15:16:31;;;;;;;4.07;0.80;;;14.60;99.90;;;;;;4970728;28;20197;-73
2021/05/18 15:19:03;;;;;;;3.90;0.60;;;14.60;99.90;;;;;;5015703;28;20452;-73
2021/05/18 15:21:30;;;;;;;3.70;0.50;;;14.70;99.90;;;;;;5032429;28;20428;-73
2021/05/18 15:23:56;;;;;;;4.50;0.60;;;14.80;99.90;;;;;;5017059;28;20428;-72
2021/05/18 15:26:23;;;;;;;4.00;0.63;;;14.90;99.90;;;;;;5035177;28;20478;-71
2021/05/18 15:28:48;;;;;;;4.07;0.80;;;14.90;99.90;;;;;;5035169;28;20767;-71
2021/05/18 15:31:14;;;;;;;3.60;0.50;;;14.90;99.90;;;;;;5047054;28;20432;-73
2021/05/18 15:33:40;;;;;;;8.73;1.30;;;15.00;99.90;;;;;;5054203;28;20202;-72
2021/05/18 15:36:06;;;;;;;4.87;0.70;;;15.00;99.90;;;;;;5054988;28;20223;-72
2021/05/18 15:38:38;;;;;;;6.00;0.60;;;15.10;99.90;;;;;;5034849;28;20172;-72
2021/05/18 15:41:07;;;;;;;3.73;0.70;;;15.20;99.90;;;;;;5039330;28;20446;-73
2021/05/18 15:43:36;;;;;;;3.70;0.67;;;15.30;99.90;;;;;;5035556;28;20419;-73
2021/05/18 15:46:04;;;;;;;6.03;0.73;;;15.40;99.90;;;;;;5052825;28;20435;-74
2021/05/18 15:48:30;;;;;;;3.73;0.50;;;15.50;99.90;;;;;;5051897;28;20438;-73
2021/05/18 15:50:56;;;;;;;4.90;0.63;;;15.70;99.90;;;;;;5046381;28;20450;-76
2021/05/18 15:53:22;;;;;;;3.70;0.50;;;15.80;99.90;;;;;;5034470;28;20412;-74
2021/05/18 15:56:00;;;;;;;3.90;0.70;;;15.80;99.90;;;;;;5048008;28;20796;-73
2021/05/18 15:58:26;;;;;;;4.20;0.87;;;15.90;99.90;;;;;;5022902;28;20438;-71
2021/05/18 16:00:54;;;;;;;4.00;0.80;;;16.00;99.90;;;;;;5041351;28;20799;-72
2021/05/18 16:03:43;;;;;;;3.63;0.70;;;16.00;99.90;;;;;;5034381;28;20412;-73
2021/05/18 16:06:09;;;;;;;3.90;0.77;;;16.00;99.90;;;;;;5031464;28;20445;-71
2021/05/18 16:11:06;;;;;;;4.17;1.07;;;15.70;98.90;;;;;;5034693;28;20411;-70
2021/05/18 16:13:37;;;;;;;5.50;1.53;;;15.50;99.90;;;;;;5032782;28;20174;-71
2021/05/18 16:16:09;;;;;;;3.70;0.70;;;15.30;99.90;;;;;;5030786;28;20527;-72
2021/05/18 16:18:41;;;;;;;3.70;0.70;;;15.10;99.90;;;;;;5047502;28;20427;-69
2021/05/18 16:21:17;;;;;;;7.77;0.80;;;15.00;99.90;;;;;;5054365;28;20802;-72
2021/05/18 16:23:51;;;;;;;3.50;0.40;;;14.80;99.90;;;;;;5035723;28;20433;-74
2021/05/18 16:26:26;;;;;;;3.70;0.60;;;14.60;99.90;;;;;;5036173;28;20462;-72
2021/05/18 16:28:52;;;;;;;3.70;0.70;;;14.40;99.90;;;;;;5053498;28;20497;-69
2021/05/18 16:31:19;;;;;;;5.70;0.60;;;14.20;99.90;;;;;;5035872;28;20460;-67
2021/05/18 16:33:45;;;;;;;10.03;0.90;;;13.90;99.90;;;;;;5051534;28;20768;-68
2021/05/18 16:36:13;;;;;;;4.00;0.80;;;13.40;99.90;;;;;;5035295;28;20436;-69
2021/05/18 16:38:39;;;;;;;3.80;0.50;;;13.00;99.90;;;;;;5053201;28;20771;-72
2021/05/18 16:41:05;;;;;;;4.07;0.53;;;12.60;99.90;;;;;;5053587;28;20407;-70
2021/05/18 16:43:32;;;;;;;6.00;0.97;;;12.40;99.90;;;;;;5035475;28;20764;-72
2021/05/18 16:45:59;;;;;;;4.20;0.77;;;12.30;99.90;;;;;;5053307;28;20199;-68
2021/05/18 16:48:28;;;;;;;3.88;0.60;;;12.30;99.90;;;;;;5041839;28;20186;-74
2021/05/18 16:50:55;;;;;;;4.03;0.98;;;12.20;99.90;;;;;;5033608;28;20498;-72
2021/05/18 16:53:21;;;;;;;3.97;0.63;;;12.20;99.90;;;;;;5033307;28;20191;-73
2021/05/18 16:55:47;;;;;;;4.00;0.70;;;12.20;99.90;;;;;;5032369;28;20186;-71
2021/05/18 16:58:14;;;;;;;4.30;0.67;;;12.20;99.90;;;;;;5032212;28;20170;-73
2021/05/18 17:00:39;;;;;;;4.45;0.95;;;12.20;99.90;;;;;;5033218;28;20410;-73
2021/05/18 17:03:05;;;;;;;4.17;0.67;;;12.20;99.90;;;;;;5042781;28;20535;-72
2021/05/18 17:05:31;;;;;;;3.90;0.60;;;12.20;99.90;;;;;;5052567;28;20200;-72
2021/05/18 17:07:58;;;;;;;3.90;0.60;;;12.20;99.90;;;;;;5053186;28;20173;-72
2021/05/18 17:10:25;;;;;;;3.92;0.60;;;12.20;99.90;;;;;;5050127;28;20546;-75
2021/05/18 17:12:52;;;;;;;3.90;0.60;;;12.20;99.90;;;;;;5032862;28;20178;-74
2021/05/18 17:15:19;;;;;;;4.47;0.82;;;12.20;99.90;;;;;;5015162;28;20198;-74
2021/05/18 17:17:45;;;;;;;7.13;0.70;;;12.20;99.90;;;;;;5032628;28;20170;-72
2021/05/18 17:20:12;;;;;;;5.10;0.90;;;12.20;99.90;;;;;;5033232;28;20182;-72
2021/05/18 17:22:39;;;;;;;4.00;0.70;;;12.20;99.90;;;;;;5033407;28;20401;-72
2021/05/18 17:25:07;;;;;;;4.72;0.80;;;12.20;99.90;;;;;;5033378;28;20200;-71
2021/05/18 17:27:33;;;;;;;4.25;0.80;;;12.20;99.90;;;;;;5035520;28;20190;-74
2021/05/18 17:29:58;;;;;;;4.10;0.63;;;12.20;99.90;;;;;;5053008;28;20213;-73
2021/05/18 17:32:24;;;;;;;4.70;1.00;;;12.20;99.90;;;;;;5053098;28;20508;-73
2021/05/18 17:34:50;;;;;;;4.90;0.97;;;12.20;99.90;;;;;;5040712;28;20682;-72
2021/05/18 17:37:16;;;;;;;5.23;0.80;;;12.30;99.90;;;;;;5015110;28;20903;-73
2021/05/18 17:39:42;;;;;;;4.40;1.20;;;12.30;99.90;;;;;;5032932;28;20174;-71
2021/05/18 17:42:08;;;;;;;4.20;0.90;;;12.20;99.90;;;;;;5032762;28;20250;-70
2021/05/18 17:44:35;;;;;;;4.95;1.20;;;12.20;99.90;;;;;;5032549;28;20421;-69
2021/05/18 17:47:01;;;;;;;4.40;0.80;;;12.10;99.90;;;;;;5032656;28;20231;-72
2021/05/18 17:49:26;;;;;;;4.40;0.70;;;12.00;99.90;;;;;;5047162;28;20205;-72
2021/05/18 17:51:53;;;;;;;4.33;0.90;;;11.80;99.90;;;;;;5051280;28;20185;-73
2021/05/18 17:54:21;;;;;;;4.85;0.73;;;11.70;99.90;;;;;;5048661;28;20431;-70
2021/05/18 17:56:48;;;;;;;5.20;0.85;;;11.50;99.90;;;;;;5035788;28;20174;-73
2021/05/18 17:59:13;;;;;;;5.18;1.10;;;11.30;99.90;;;;;;5043713;28;20687;-71
2021/05/18 18:01:42;;;;;;;5.40;1.10;;;11.20;99.90;;;;;;5041023;28;20206;-72
2021/05/18 18:04:07;;;;;;;4.72;0.80;;;11.10;99.90;;;;;;5044792;28;20256;-71
2021/05/18 18:06:33;;;;;;;4.20;0.50;;;11.00;99.90;;;;;;5052663;28;20203;-70
2021/05/18 18:09:00;;;;;;;4.30;0.50;;;10.90;99.90;;;;;;5041223;28;20730;-69
2021/05/18 18:11:26;;;;;;;7.50;0.93;;;10.80;99.90;;;;;;5032474;28;20772;-69